createdAt,value
2023-12-23T00:01:07.481Z,100.00
2023-12-23T00:03:35.333Z,100.00
2023-12-23T00:06:03.200Z,100.00
2023-12-23T00:08:31.049Z,100.00
2023-12-23T00:10:59.211Z,100.00
2023-12-23T00:13:28.370Z,100.00
2023-12-23T00:15:56.149Z,100.00
2023-12-23T00:18:24.068Z,100.00
2023-12-23T00:20:52.044Z,100.00
2023-12-23T00:23:20.020Z,100.00
2023-12-23T00:25:47.893Z,100.00
2023-12-23T00:28:15.663Z,100.00
2023-12-23T00:30:45.046Z,100.00
2023-12-23T00:33:12.978Z,100.00
2023-12-23T00:35:42.486Z,100.00
2023-12-23T00:38:10.383Z,100.00
2023-12-23T00:40:38.209Z,100.00
2023-12-23T00:43:06.123Z,100.00
2023-12-23T00:45:33.890Z,100.00
2023-12-23T00:48:03.557Z,100.00
2023-12-23T00:50:31.466Z,100.00
2023-12-23T00:53:01.778Z,100.00
2023-12-23T00:55:29.607Z,100.00
2023-12-23T00:57:57.378Z,100.00
2023-12-23T01:00:25.294Z,100.00
2023-12-23T01:02:53.071Z,100.00
2023-12-23T01:05:22.177Z,100.00
2023-12-23T01:07:50.142Z,100.00
2023-12-23T01:10:18.253Z,100.00
2023-12-23T01:12:45.988Z,100.00
2023-12-23T01:15:13.847Z,100.00
2023-12-23T01:17:41.688Z,100.00
2023-12-23T01:20:10.509Z,100.00
2023-12-23T01:22:39.718Z,100.00
2023-12-23T01:25:08.347Z,100.00
2023-12-23T01:27:36.127Z,100.00
2023-12-23T01:30:04.212Z,100.00
2023-12-23T01:32:32.160Z,100.00
2023-12-23T01:35:00.063Z,100.00
2023-12-23T01:37:27.810Z,100.00
2023-12-23T01:39:57.722Z,100.00
2023-12-23T01:42:25.508Z,100.00
2023-12-23T01:44:53.344Z,100.00
2023-12-23T01:47:21.224Z,100.00
2023-12-23T01:49:50.222Z,100.00
2023-12-23T01:52:18.473Z,100.00
2023-12-23T01:54:47.321Z,100.00
2023-12-23T01:57:16.502Z,100.00
2023-12-23T01:59:44.327Z,100.00
2023-12-23T02:02:13.863Z,100.00
2023-12-23T02:04:42.073Z,100.00
2023-12-23T02:07:09.862Z,100.00
2023-12-23T02:09:37.835Z,100.00
2023-12-23T02:12:13.122Z,100.00
2023-12-23T02:14:47.636Z,100.00
2023-12-23T02:17:15.804Z,100.00
2023-12-23T02:19:43.866Z,100.00
2023-12-23T02:22:13.197Z,100.00
2023-12-23T02:24:41.095Z,100.00
2023-12-23T02:27:13.033Z,100.00
2023-12-23T02:29:42.429Z,100.00
2023-12-23T02:32:11.542Z,100.00
2023-12-23T02:34:39.790Z,100.00
2023-12-23T02:37:07.597Z,100.00
2023-12-23T02:39:36.833Z,100.00
2023-12-23T02:42:05.685Z,100.00
2023-12-23T02:44:34.859Z,100.00
2023-12-23T02:47:03.377Z,100.00
2023-12-23T02:49:31.232Z,100.00
2023-12-23T02:51:58.984Z,100.00
2023-12-23T02:54:26.755Z,100.00
2023-12-23T02:56:55.922Z,100.00
2023-12-23T02:59:23.730Z,100.00
2023-12-23T03:01:51.607Z,100.00
2023-12-23T03:04:19.372Z,100.00
2023-12-23T03:06:47.217Z,100.00
2023-12-23T03:09:15.045Z,100.00
2023-12-23T03:11:42.863Z,100.00
2023-12-23T03:14:12.146Z,100.00
2023-12-23T03:16:39.917Z,100.00
2023-12-23T03:19:08.157Z,100.00
2023-12-23T03:21:35.963Z,100.00
2023-12-23T03:24:03.726Z,100.00
2023-12-23T03:26:31.490Z,100.00
2023-12-23T03:28:59.313Z,100.00
2023-12-23T03:31:28.481Z,100.00
2023-12-23T03:33:56.299Z,100.00
2023-12-23T03:36:24.466Z,100.00
2023-12-23T03:38:52.446Z,100.00
2023-12-23T03:41:20.276Z,100.00
2023-12-23T03:43:48.163Z,100.00
2023-12-23T03:46:16.026Z,100.00
2023-12-23T03:48:45.202Z,100.00
2023-12-23T03:51:13.245Z,100.00
2023-12-23T03:53:41.056Z,100.00
2023-12-23T03:56:08.903Z,100.00
2023-12-23T03:58:36.993Z,100.00
2023-12-23T04:01:05.827Z,100.00
2023-12-23T04:03:33.652Z,100.00
2023-12-23T04:06:04.243Z,100.00
2023-12-23T04:08:31.990Z,100.00
2023-12-23T04:11:00.906Z,100.00
2023-12-23T04:13:30.183Z,100.00
2023-12-23T04:15:58.020Z,100.00
2023-12-23T04:18:25.957Z,100.00
2023-12-23T04:20:53.807Z,100.00
2023-12-23T04:23:23.342Z,100.00
2023-12-23T04:25:51.775Z,100.00
2023-12-23T04:28:25.514Z,100.00
2023-12-23T04:30:56.077Z,100.00
2023-12-23T04:33:24.393Z,100.00
2023-12-23T04:35:52.740Z,100.00
2023-12-23T04:38:20.621Z,100.00
2023-12-23T04:40:50.315Z,100.00
2023-12-23T04:43:18.147Z,100.00
2023-12-23T04:45:46.062Z,100.00
2023-12-23T04:48:14.249Z,100.00
2023-12-23T04:50:42.359Z,100.00
2023-12-23T04:53:11.141Z,100.00
2023-12-23T04:55:39.029Z,100.00
2023-12-23T04:58:09.307Z,100.00
2023-12-23T05:00:37.599Z,100.00
2023-12-23T05:03:05.833Z,100.00
2023-12-23T05:05:33.706Z,100.00
2023-12-23T05:08:01.676Z,100.00
2023-12-23T05:10:29.451Z,100.00
2023-12-23T05:12:57.225Z,100.00
2023-12-23T05:15:26.409Z,100.00
2023-12-23T05:17:54.295Z,100.00
2023-12-23T05:20:23.059Z,100.00
2023-12-23T05:22:51.360Z,100.00
2023-12-23T05:25:19.458Z,100.00
2023-12-23T05:27:47.379Z,100.00
2023-12-23T05:30:15.708Z,100.00
2023-12-23T05:32:45.475Z,100.00
2023-12-23T05:35:13.481Z,100.00
2023-12-23T05:37:41.361Z,100.00
2023-12-23T05:40:10.418Z,100.00
2023-12-23T05:42:38.198Z,100.00
2023-12-23T05:45:06.636Z,100.00
2023-12-23T05:47:34.531Z,100.00
2023-12-23T05:50:03.785Z,100.00
2023-12-23T05:52:31.712Z,100.00
2023-12-23T05:54:59.507Z,100.00
2023-12-23T05:57:27.327Z,100.00
2023-12-23T05:59:55.127Z,100.00
2023-12-23T06:02:23.063Z,100.00
2023-12-23T06:04:50.947Z,100.00
2023-12-23T06:07:20.169Z,100.00
2023-12-23T06:09:47.953Z,100.00
2023-12-23T06:12:15.771Z,100.00
2023-12-23T06:14:44.062Z,100.00
2023-12-23T06:17:11.965Z,100.00
2023-12-23T06:19:39.768Z,100.00
2023-12-23T06:22:08.930Z,100.00
2023-12-23T06:24:38.072Z,100.00
2023-12-23T06:27:06.365Z,100.00
2023-12-23T06:29:34.156Z,100.00
2023-12-23T06:32:03.288Z,100.00
2023-12-23T06:34:31.193Z,100.00
2023-12-23T06:36:58.973Z,100.00
2023-12-23T06:39:26.776Z,100.00
2023-12-23T06:41:55.998Z,100.00
2023-12-23T06:44:23.854Z,100.00
2023-12-23T06:46:53.008Z,100.00
2023-12-23T06:49:20.871Z,100.00
2023-12-23T06:51:48.715Z,100.00
2023-12-23T06:54:16.471Z,100.00
2023-12-23T06:56:44.241Z,100.00
2023-12-23T06:59:14.268Z,100.00
2023-12-23T07:01:42.164Z,100.00
2023-12-23T07:04:10.115Z,100.00
2023-12-23T07:06:38.317Z,100.00
2023-12-23T07:09:08.951Z,100.00
2023-12-23T07:11:37.303Z,100.00
2023-12-23T07:14:05.256Z,100.00
2023-12-23T07:16:34.426Z,100.00
2023-12-23T07:19:02.353Z,100.00
2023-12-23T07:21:30.127Z,100.00
2023-12-23T07:23:57.908Z,100.00
2023-12-23T07:26:25.815Z,100.00
2023-12-23T07:28:54.354Z,100.00
2023-12-23T07:31:22.180Z,100.00
2023-12-23T07:33:51.559Z,100.00
2023-12-23T07:36:19.782Z,100.00
2023-12-23T07:38:47.591Z,100.00
2023-12-23T07:41:15.422Z,100.00
2023-12-23T07:43:43.269Z,100.00
2023-12-23T07:46:11.091Z,100.00
2023-12-23T07:48:39.077Z,100.00
2023-12-23T07:51:09.580Z,100.00
2023-12-23T07:53:37.866Z,100.00
2023-12-23T07:56:08.132Z,100.00
2023-12-23T07:58:35.992Z,100.00
2023-12-23T08:01:04.296Z,100.00
2023-12-23T08:03:32.181Z,100.00
2023-12-23T08:06:00.182Z,100.00
2023-12-23T08:08:29.440Z,100.00
2023-12-23T08:10:58.415Z,100.00
2023-12-23T08:13:26.429Z,100.00
2023-12-23T08:15:54.179Z,100.00
2023-12-23T08:18:22.310Z,100.00
2023-12-23T08:20:50.215Z,100.00
2023-12-23T08:23:18.015Z,100.00
2023-12-23T08:25:48.354Z,100.00
2023-12-23T08:28:16.242Z,100.00
2023-12-23T08:30:44.280Z,100.00
2023-12-23T08:33:12.294Z,100.00
2023-12-23T08:35:42.637Z,100.00
2023-12-23T08:38:10.968Z,100.00
2023-12-23T08:40:38.809Z,100.00
2023-12-23T08:43:07.905Z,100.00
2023-12-23T08:45:35.694Z,100.00
2023-12-23T08:48:03.595Z,100.00
2023-12-23T08:50:31.461Z,100.00
2023-12-23T08:52:59.285Z,100.00
2023-12-23T08:55:27.100Z,100.00
2023-12-23T08:57:55.253Z,100.00
2023-12-23T09:00:24.941Z,100.00
2023-12-23T09:02:52.768Z,100.00
2023-12-23T09:05:21.577Z,100.00
2023-12-23T09:07:49.870Z,100.00
2023-12-23T09:10:17.931Z,100.00
2023-12-23T09:12:45.812Z,100.00
2023-12-23T09:15:13.733Z,100.00
2023-12-23T09:17:42.931Z,100.00
2023-12-23T09:20:13.936Z,100.00
2023-12-23T09:22:41.737Z,100.00
2023-12-23T09:25:10.190Z,100.00
2023-12-23T09:27:38.010Z,100.00
2023-12-23T09:30:06.898Z,100.00
2023-12-23T09:32:34.816Z,100.00
2023-12-23T09:35:05.997Z,100.00
2023-12-23T09:37:34.551Z,100.00
2023-12-23T09:40:03.880Z,100.00
2023-12-23T09:42:31.694Z,100.00
2023-12-23T09:44:59.664Z,100.00
2023-12-23T09:47:27.674Z,100.00
2023-12-23T09:49:55.649Z,100.00
2023-12-23T09:52:25.088Z,100.00
2023-12-23T09:54:55.303Z,100.00
2023-12-23T09:57:23.792Z,100.00
2023-12-23T09:59:53.216Z,100.00
2023-12-23T10:02:21.000Z,100.00
2023-12-23T10:04:48.792Z,100.00
2023-12-23T10:07:16.667Z,100.00
2023-12-23T10:09:46.002Z,100.00
2023-12-23T10:12:13.745Z,100.00
2023-12-23T10:14:42.674Z,100.00
2023-12-23T10:17:10.499Z,100.00
2023-12-23T10:19:38.800Z,100.00
2023-12-23T10:22:06.673Z,100.00
2023-12-23T10:24:34.443Z,100.00
2023-12-23T10:27:04.118Z,100.00
2023-12-23T10:29:34.467Z,100.00
2023-12-23T10:32:05.821Z,100.00
2023-12-23T10:34:43.691Z,100.00
2023-12-23T10:37:11.681Z,100.00
2023-12-23T10:39:46.377Z,100.00
2023-12-23T10:42:21.201Z,100.00
2023-12-23T10:44:50.113Z,100.00
2023-12-23T10:47:18.157Z,100.00
2023-12-23T10:49:47.723Z,100.00
2023-12-23T10:52:16.356Z,100.00
2023-12-23T10:54:44.483Z,100.00
2023-12-23T10:57:14.300Z,100.00
2023-12-23T10:59:43.646Z,100.00
2023-12-23T11:02:15.605Z,100.00
2023-12-23T11:04:47.231Z,100.00
2023-12-23T11:07:18.324Z,100.00
2023-12-23T11:09:48.601Z,100.00
2023-12-23T11:12:18.778Z,100.00
2023-12-23T11:14:48.485Z,100.00
2023-12-23T11:17:26.379Z,100.00
2023-12-23T11:19:57.063Z,100.00
2023-12-23T11:22:26.335Z,100.00
2023-12-23T11:24:54.439Z,100.00
2023-12-23T11:27:36.058Z,100.00
2023-12-23T11:30:09.998Z,100.00
2023-12-23T11:32:41.275Z,100.00
2023-12-23T11:35:13.000Z,100.00
2023-12-23T11:37:54.536Z,100.00
2023-12-23T11:40:23.039Z,100.00
2023-12-23T11:42:52.101Z,100.00
2023-12-23T11:45:21.630Z,100.00
2023-12-23T11:47:51.700Z,100.00
2023-12-23T11:50:19.577Z,100.00
2023-12-23T11:52:47.713Z,100.00
2023-12-23T11:55:17.433Z,100.00
2023-12-23T11:57:45.491Z,100.00
2023-12-23T12:00:14.506Z,100.00
2023-12-23T12:02:43.629Z,100.00
2023-12-23T12:05:12.429Z,100.00
2023-12-23T12:07:40.591Z,100.00
2023-12-23T12:10:09.357Z,100.00
2023-12-23T12:12:37.186Z,100.00
2023-12-23T12:15:05.635Z,100.00
2023-12-23T12:17:34.433Z,100.00
2023-12-23T12:20:04.221Z,100.00
2023-12-23T12:22:32.947Z,100.00
2023-12-23T12:25:01.230Z,100.00
2023-12-23T12:27:29.284Z,100.00
2023-12-23T12:29:57.089Z,100.00
2023-12-23T12:32:25.235Z,100.00
2023-12-23T12:35:03.571Z,100.00
2023-12-23T12:37:31.401Z,100.00
2023-12-23T12:40:02.699Z,100.00
2023-12-23T12:42:31.634Z,100.00
2023-12-23T12:45:02.275Z,100.00
2023-12-23T12:47:31.003Z,100.00
2023-12-23T12:50:06.842Z,100.00
2023-12-23T12:52:37.400Z,100.00
2023-12-23T12:55:07.176Z,100.00
2023-12-23T12:57:35.074Z,100.00
2023-12-23T13:00:08.862Z,100.00
2023-12-23T13:02:36.692Z,100.00
2023-12-23T13:05:05.010Z,100.00
2023-12-23T13:07:32.817Z,100.00
2023-12-23T13:10:01.909Z,100.00
2023-12-23T13:12:29.739Z,100.00
2023-12-23T13:14:58.731Z,100.00
2023-12-23T13:17:26.696Z,100.00
2023-12-23T13:19:54.745Z,100.00
2023-12-23T13:22:22.591Z,100.00
2023-12-23T13:24:50.567Z,100.00
2023-12-23T13:27:20.058Z,100.00
2023-12-23T13:29:47.978Z,100.00
2023-12-23T13:32:15.900Z,100.00
2023-12-23T13:34:45.646Z,100.00
2023-12-23T13:37:13.529Z,100.00
2023-12-23T13:39:41.306Z,100.00
2023-12-23T13:42:09.109Z,100.00
2023-12-23T13:44:38.330Z,100.00
2023-12-23T13:47:06.937Z,100.00
2023-12-23T13:49:34.805Z,100.00
2023-12-23T13:52:03.324Z,100.00
2023-12-23T13:54:31.142Z,100.00
2023-12-23T13:56:58.909Z,100.00
2023-12-23T13:59:26.810Z,100.00
2023-12-23T14:01:56.079Z,100.00
2023-12-23T14:04:23.981Z,100.00
2023-12-23T14:06:51.877Z,100.00
2023-12-23T14:09:19.690Z,100.00
2023-12-23T14:11:47.472Z,100.00
2023-12-23T14:14:15.477Z,100.00
2023-12-23T14:16:43.265Z,100.00
2023-12-23T14:19:12.491Z,100.00
2023-12-23T14:21:40.451Z,100.00
2023-12-23T14:24:08.462Z,100.00
2023-12-23T14:26:36.383Z,100.00
2023-12-23T14:29:04.267Z,100.00
2023-12-23T14:31:32.131Z,100.00
2023-12-23T14:34:00.057Z,100.00
2023-12-23T14:36:33.038Z,100.00
2023-12-23T14:39:01.555Z,100.00
2023-12-23T14:41:29.603Z,100.00
2023-12-23T14:43:57.410Z,100.00
2023-12-23T14:46:25.257Z,100.00
2023-12-23T14:48:53.212Z,100.00
2023-12-23T14:51:24.333Z,100.00
2023-12-23T14:53:53.507Z,100.00
2023-12-23T14:56:21.414Z,100.00
2023-12-23T14:58:49.282Z,100.00
2023-12-23T15:01:17.131Z,100.00
2023-12-23T15:03:44.952Z,100.00
2023-12-23T15:06:12.943Z,100.00
2023-12-23T15:08:40.824Z,100.00
2023-12-23T15:11:10.321Z,100.00
2023-12-23T15:13:40.381Z,100.00
2023-12-23T15:16:09.969Z,100.00
2023-12-23T15:18:38.056Z,100.00
2023-12-23T15:21:07.908Z,100.00
2023-12-23T15:23:35.861Z,100.00
2023-12-23T15:26:03.838Z,100.00
2023-12-23T15:28:33.274Z,100.00
2023-12-23T15:31:01.230Z,100.00
2023-12-23T15:33:29.177Z,100.00
2023-12-23T15:35:57.073Z,100.00
2023-12-23T15:38:24.890Z,100.00
2023-12-23T15:40:52.794Z,100.00
2023-12-23T15:43:20.622Z,100.00
2023-12-23T15:45:49.787Z,100.00
2023-12-23T15:48:17.724Z,100.00
2023-12-23T15:50:45.761Z,100.00
2023-12-23T15:53:15.334Z,100.00
2023-12-23T15:55:43.408Z,100.00
2023-12-23T15:58:11.229Z,100.00
2023-12-23T16:00:39.013Z,100.00
2023-12-23T16:03:08.556Z,100.00
2023-12-23T16:05:36.496Z,100.00
2023-12-23T16:08:05.197Z,100.00
2023-12-23T16:10:33.228Z,100.00
2023-12-23T16:13:01.038Z,100.00
2023-12-23T16:15:28.833Z,100.00
2023-12-23T16:17:56.698Z,100.00
2023-12-23T16:20:26.020Z,100.00
2023-12-23T16:22:54.105Z,100.00
2023-12-23T16:25:22.092Z,100.00
2023-12-23T16:27:49.885Z,100.00
2023-12-23T16:30:17.831Z,100.00
2023-12-23T16:32:45.936Z,100.00
2023-12-23T16:35:13.890Z,100.00
2023-12-23T16:37:43.487Z,100.00
2023-12-23T16:40:11.888Z,100.00
2023-12-23T16:42:39.697Z,100.00
2023-12-23T16:45:09.131Z,100.00
2023-12-23T16:47:37.130Z,100.00
2023-12-23T16:50:05.659Z,100.00
2023-12-23T16:52:33.535Z,100.00
2023-12-23T16:55:02.870Z,100.00
2023-12-23T16:57:30.651Z,100.00
2023-12-23T16:59:58.466Z,100.00
2023-12-23T17:02:26.785Z,100.00
2023-12-23T17:04:54.932Z,100.00
2023-12-23T17:07:22.911Z,100.00
2023-12-23T17:09:50.719Z,100.00
2023-12-23T17:12:20.027Z,100.00
2023-12-23T17:14:49.325Z,100.00
2023-12-23T17:17:17.183Z,100.00
2023-12-23T17:19:45.093Z,100.00
2023-12-23T17:22:12.875Z,100.00
2023-12-23T17:24:40.693Z,100.00
2023-12-23T17:27:08.484Z,100.00
2023-12-23T17:29:37.672Z,100.00
2023-12-23T17:32:06.325Z,100.00
2023-12-23T17:34:35.424Z,100.00
2023-12-23T17:37:03.284Z,100.00
2023-12-23T17:39:31.129Z,100.00
2023-12-23T17:42:00.631Z,100.00
2023-12-23T17:44:28.813Z,100.00
2023-12-23T17:46:58.078Z,100.00
2023-12-23T17:49:25.971Z,100.00
2023-12-23T17:51:53.793Z,100.00
2023-12-23T17:54:21.617Z,100.00
2023-12-23T17:56:49.450Z,100.00
2023-12-23T17:59:17.307Z,100.00
2023-12-23T18:01:45.071Z,100.00
2023-12-23T18:04:14.220Z,100.00
2023-12-23T18:06:41.996Z,100.00
2023-12-23T18:09:09.822Z,100.00
2023-12-23T18:11:37.665Z,100.00
2023-12-23T18:14:05.963Z,100.00
2023-12-23T18:16:33.834Z,100.00
2023-12-23T18:19:02.031Z,100.00
2023-12-23T18:21:31.277Z,100.00
2023-12-23T18:23:59.053Z,100.00
2023-12-23T18:26:28.112Z,100.00
2023-12-23T18:28:55.974Z,100.00
2023-12-23T18:31:23.860Z,100.00
2023-12-23T18:33:51.768Z,100.00
2023-12-23T18:36:19.664Z,100.00
2023-12-23T18:38:48.891Z,100.00
2023-12-23T18:41:16.733Z,100.00
2023-12-23T18:43:44.557Z,100.00
2023-12-23T18:46:14.437Z,100.00
2023-12-23T18:48:42.390Z,100.00
2023-12-23T18:51:11.152Z,100.00
2023-12-23T18:53:38.947Z,100.00
2023-12-23T18:56:08.937Z,100.00
2023-12-23T18:58:36.691Z,100.00
2023-12-23T19:01:04.777Z,100.00
2023-12-23T19:03:32.683Z,100.00
2023-12-23T19:06:00.859Z,100.00
2023-12-23T19:08:28.789Z,100.00
2023-12-23T19:10:58.471Z,100.00
2023-12-23T19:13:28.653Z,100.00
2023-12-23T19:15:56.795Z,100.00
2023-12-23T19:18:25.066Z,100.00
2023-12-23T19:20:52.967Z,100.00
2023-12-23T19:23:21.595Z,100.00
2023-12-23T19:25:49.437Z,100.00
2023-12-23T19:28:17.985Z,100.00
2023-12-23T19:30:47.353Z,100.00
2023-12-23T19:33:15.582Z,100.00
2023-12-23T19:35:44.483Z,100.00
2023-12-23T19:38:12.299Z,100.00
2023-12-23T19:40:42.030Z,100.00
2023-12-23T19:43:09.957Z,100.00
2023-12-23T19:45:38.529Z,100.00
2023-12-23T19:48:08.807Z,100.00
2023-12-23T19:50:36.626Z,100.00
2023-12-23T19:53:04.556Z,100.00
2023-12-23T19:55:32.378Z,100.00
2023-12-23T19:58:00.185Z,100.00
2023-12-23T20:00:28.005Z,100.00
2023-12-23T20:02:56.819Z,100.00
2023-12-23T20:05:26.148Z,100.00
2023-12-23T20:07:54.007Z,100.00
2023-12-23T20:10:21.842Z,100.00
2023-12-23T20:12:50.125Z,100.00
2023-12-23T20:15:18.221Z,100.00
2023-12-23T20:17:46.442Z,100.00
2023-12-23T20:20:14.389Z,100.00
2023-12-23T20:22:43.927Z,100.00
2023-12-23T20:25:11.692Z,100.00
2023-12-23T20:27:39.499Z,100.00
2023-12-23T20:30:08.606Z,100.00
2023-12-23T20:32:36.546Z,100.00
2023-12-23T20:35:04.955Z,100.00
2023-12-23T20:37:32.726Z,100.00
2023-12-23T20:40:01.975Z,100.00
2023-12-23T20:42:30.238Z,100.00
2023-12-23T20:44:58.051Z,100.00
2023-12-23T20:47:26.034Z,100.00
2023-12-23T20:49:53.938Z,100.00
2023-12-23T20:52:21.858Z,100.00
2023-12-23T20:54:49.656Z,100.00
2023-12-23T20:57:18.938Z,100.00
2023-12-23T20:59:46.772Z,100.00
2023-12-23T21:02:14.777Z,98.84
2023-12-23T21:04:42.649Z,99.29
2023-12-23T21:07:12.063Z,98.87
2023-12-23T21:09:39.837Z,99.00
2023-12-23T21:12:07.941Z,98.29
2023-12-23T21:14:37.124Z,96.77
2023-12-23T21:17:06.916Z,98.05
2023-12-23T21:19:34.752Z,96.62
2023-12-23T21:22:02.606Z,96.68
2023-12-23T21:24:30.481Z,95.88
2023-12-23T21:26:59.078Z,96.01
2023-12-23T21:29:27.309Z,94.93
2023-12-23T21:31:56.541Z,95.45
2023-12-23T21:34:24.418Z,94.97
2023-12-23T21:36:52.218Z,95.18
2023-12-23T21:39:19.977Z,93.76
2023-12-23T21:41:47.732Z,94.81
2023-12-23T21:44:15.597Z,94.21
2023-12-23T21:46:45.571Z,94.05
2023-12-23T21:49:14.790Z,93.80
2023-12-23T21:51:42.702Z,94.49
2023-12-23T21:54:10.491Z,94.34
2023-12-23T21:56:38.519Z,95.11
2023-12-23T21:59:06.396Z,94.76
2023-12-23T22:01:34.445Z,94.19
2023-12-23T22:04:02.582Z,95.44
2023-12-23T22:06:31.835Z,94.83
2023-12-23T22:08:59.624Z,94.20
2023-12-23T22:11:26.664Z,95.60
2023-12-23T22:13:54.586Z,94.86
2023-12-23T22:16:22.408Z,95.72
2023-12-23T22:18:50.325Z,95.26
2023-12-23T22:21:18.144Z,95.58
2023-12-23T22:23:47.215Z,95.67
2023-12-23T22:26:15.077Z,94.96
2023-12-23T22:28:43.683Z,95.79
2023-12-23T22:31:11.509Z,95.77
2023-12-23T22:33:39.428Z,95.04
2023-12-23T22:36:10.439Z,95.11
2023-12-23T22:38:38.430Z,95.11
2023-12-23T22:41:07.754Z,95.63
2023-12-23T22:43:35.802Z,95.79
2023-12-23T22:46:03.541Z,95.49
2023-12-23T22:48:31.424Z,94.25
2023-12-23T22:50:59.286Z,94.87
2023-12-23T22:53:27.653Z,95.32
2023-12-23T22:55:55.675Z,94.77
2023-12-23T22:58:24.864Z,95.00
2023-12-23T23:00:52.653Z,94.96
2023-12-23T23:03:20.498Z,95.66
2023-12-23T23:05:48.356Z,94.39
2023-12-23T23:08:16.206Z,95.02
2023-12-23T23:10:43.972Z,95.10
2023-12-23T23:13:11.741Z,95.61
2023-12-23T23:15:41.071Z,94.31
2023-12-23T23:18:09.244Z,94.99
2023-12-23T23:20:37.483Z,94.54
2023-12-23T23:23:05.682Z,95.07
2023-12-23T23:25:33.611Z,94.82
2023-12-23T23:28:02.486Z,94.20
2023-12-23T23:30:31.272Z,95.15
2023-12-23T23:33:01.333Z,95.57
2023-12-23T23:35:30.704Z,95.35
2023-12-23T23:37:58.685Z,94.88
2023-12-23T23:40:26.678Z,94.83
2023-12-23T23:42:54.640Z,95.11
2023-12-23T23:45:22.687Z,95.42
2023-12-23T23:47:50.675Z,96.05
2023-12-23T23:50:20.024Z,96.13
2023-12-23T23:52:48.110Z,97.10
2023-12-23T23:55:15.991Z,97.97
2023-12-23T23:57:44.274Z,97.95
